sensor_id;sensor_type;location;lat;lon;timestamp;P1;durP1;ratioP1;P2;durP2;ratioP2
54145;SDS011;40052;49.422;7.738;2022-10-16T00:01:20;1.77;;;0.70;;
54145;SDS011;40052;49.422;7.738;2022-10-16T00:03:49;0.85;;;0.63;;
54145;SDS011;40052;49.422;7.738;2022-10-16T00:06:15;2.80;;;0.85;;
54145;SDS011;40052;49.422;7.738;2022-10-16T00:08:41;0.63;;;0.63;;
54145;SDS011;40052;49.422;7.738;2022-10-16T00:11:10;0.95;;;0.80;;
54145;SDS011;40052;49.422;7.738;2022-10-16T00:16:07;2.80;;;0.70;;
54145;SDS011;40052;49.422;7.738;2022-10-16T00:18:37;1.38;;;0.80;;
54145;SDS011;40052;49.422;7.738;2022-10-16T00:21:10;0.63;;;0.60;;
54145;SDS011;40052;49.422;7.738;2022-10-16T00:23:37;0.75;;;0.70;;
54145;SDS011;40052;49.422;7.738;2022-10-16T00:26:04;0.63;;;0.57;;
54145;SDS011;40052;49.422;7.738;2022-10-16T00:28:34;1.58;;;1.00;;
54145;SDS011;40052;49.422;7.738;2022-10-16T00:31:06;1.20;;;0.80;;
54145;SDS011;40052;49.422;7.738;2022-10-16T00:33:33;0.75;;;0.75;;
54145;SDS011;40052;49.422;7.738;2022-10-16T00:36:02;1.48;;;0.90;;
54145;SDS011;40052;49.422;7.738;2022-10-16T00:38:30;0.80;;;0.80;;
54145;SDS011;40052;49.422;7.738;2022-10-16T00:40:56;0.93;;;0.82;;
54145;SDS011;40052;49.422;7.738;2022-10-16T00:43:41;1.35;;;0.77;;
54145;SDS011;40052;49.422;7.738;2022-10-16T00:46:25;2.88;;;0.90;;
54145;SDS011;40052;49.422;7.738;2022-10-16T00:49:03;0.80;;;0.80;;
54145;SDS011;40052;49.422;7.738;2022-10-16T00:51:33;1.23;;;0.98;;
54145;SDS011;40052;49.422;7.738;2022-10-16T00:54:32;1.08;;;0.98;;
54145;SDS011;40052;49.422;7.738;2022-10-16T00:57:00;0.77;;;0.70;;
54145;SDS011;40052;49.422;7.738;2022-10-16T00:59:29;2.05;;;0.80;;
54145;SDS011;40052;49.422;7.738;2022-10-16T01:01:58;0.80;;;0.80;;
54145;SDS011;40052;49.422;7.738;2022-10-16T01:04:26;2.63;;;1.25;;
54145;SDS011;40052;49.422;7.738;2022-10-16T01:09:29;1.13;;;1.00;;
54145;SDS011;40052;49.422;7.738;2022-10-16T01:12:15;1.67;;;1.10;;
54145;SDS011;40052;49.422;7.738;2022-10-16T01:17:44;1.90;;;1.10;;
54145;SDS011;40052;49.422;7.738;2022-10-16T01:20:16;0.93;;;0.90;;
54145;SDS011;40052;49.422;7.738;2022-10-16T01:28:19;2.90;;;1.15;;
54145;SDS011;40052;49.422;7.738;2022-10-16T01:30:51;1.23;;;1.00;;
54145;SDS011;40052;49.422;7.738;2022-10-16T01:33:24;1.35;;;0.93;;
54145;SDS011;40052;49.422;7.738;2022-10-16T01:36:02;3.63;;;1.00;;
54145;SDS011;40052;49.422;7.738;2022-10-16T01:38:44;1.98;;;1.00;;
54145;SDS011;40052;49.422;7.738;2022-10-16T01:41:17;2.35;;;1.02;;
54145;SDS011;40052;49.422;7.738;2022-10-16T01:43:48;1.30;;;1.00;;
54145;SDS011;40052;49.422;7.738;2022-10-16T01:46:18;1.20;;;0.90;;
54145;SDS011;40052;49.422;7.738;2022-10-16T01:48:49;3.92;;;1.00;;
54145;SDS011;40052;49.422;7.738;2022-10-16T01:51:18;1.42;;;1.00;;
54145;SDS011;40052;49.422;7.738;2022-10-16T01:53:47;1.35;;;0.93;;
54145;SDS011;40052;49.422;7.738;2022-10-16T01:56:17;1.38;;;0.90;;
54145;SDS011;40052;49.422;7.738;2022-10-16T01:58:46;1.70;;;0.95;;
54145;SDS011;40052;49.422;7.738;2022-10-16T02:01:26;3.90;;;1.13;;
54145;SDS011;40052;49.422;7.738;2022-10-16T02:03:59;1.25;;;0.93;;
54145;SDS011;40052;49.422;7.738;2022-10-16T02:06:29;1.10;;;1.00;;
54145;SDS011;40052;49.422;7.738;2022-10-16T02:08:55;2.33;;;1.10;;
54145;SDS011;40052;49.422;7.738;2022-10-16T02:11:23;1.67;;;1.00;;
54145;SDS011;40052;49.422;7.738;2022-10-16T02:13:56;1.60;;;1.23;;
54145;SDS011;40052;49.422;7.738;2022-10-16T02:16:33;1.20;;;0.90;;
54145;SDS011;40052;49.422;7.738;2022-10-16T02:19:00;1.20;;;0.88;;
54145;SDS011;40052;49.422;7.738;2022-10-16T02:21:26;1.23;;;0.90;;
54145;SDS011;40052;49.422;7.738;2022-10-16T02:23:57;1.20;;;0.82;;
54145;SDS011;40052;49.422;7.738;2022-10-16T02:26:35;0.93;;;0.73;;
54145;SDS011;40052;49.422;7.738;2022-10-16T02:29:02;1.10;;;1.05;;
54145;SDS011;40052;49.422;7.738;2022-10-16T02:31:32;2.35;;;1.45;;
54145;SDS011;40052;49.422;7.738;2022-10-16T02:34:01;2.33;;;0.95;;
54145;SDS011;40052;49.422;7.738;2022-10-16T02:36:33;1.85;;;0.90;;
54145;SDS011;40052;49.422;7.738;2022-10-16T02:39:02;2.00;;;0.80;;
54145;SDS011;40052;49.422;7.738;2022-10-16T02:41:30;1.42;;;0.80;;
54145;SDS011;40052;49.422;7.738;2022-10-16T02:43:55;3.58;;;0.93;;
54145;SDS011;40052;49.422;7.738;2022-10-16T02:46:21;0.82;;;0.80;;
54145;SDS011;40052;49.422;7.738;2022-10-16T02:48:46;1.33;;;0.80;;
54145;SDS011;40052;49.422;7.738;2022-10-16T02:51:12;1.65;;;0.70;;
54145;SDS011;40052;49.422;7.738;2022-10-16T02:53:37;2.63;;;0.85;;
54145;SDS011;40052;49.422;7.738;2022-10-16T02:56:03;1.23;;;0.93;;
54145;SDS011;40052;49.422;7.738;2022-10-16T02:58:28;0.68;;;0.68;;
54145;SDS011;40052;49.422;7.738;2022-10-16T03:00:56;1.48;;;0.77;;
54145;SDS011;40052;49.422;7.738;2022-10-16T03:03:24;1.27;;;0.75;;
54145;SDS011;40052;49.422;7.738;2022-10-16T03:05:49;0.70;;;0.70;;
54145;SDS011;40052;49.422;7.738;2022-10-16T03:08:15;1.95;;;0.88;;
54145;SDS011;40052;49.422;7.738;2022-10-16T03:10:40;1.55;;;0.70;;
54145;SDS011;40052;49.422;7.738;2022-10-16T03:13:06;1.75;;;0.50;;
54145;SDS011;40052;49.422;7.738;2022-10-16T03:15:33;2.00;;;0.50;;
54145;SDS011;40052;49.422;7.738;2022-10-16T03:18:02;1.92;;;0.60;;
54145;SDS011;40052;49.422;7.738;2022-10-16T03:20:29;0.65;;;0.60;;
54145;SDS011;40052;49.422;7.738;2022-10-16T03:22:57;0.80;;;0.70;;
54145;SDS011;40052;49.422;7.738;2022-10-16T03:25:28;0.70;;;0.70;;
54145;SDS011;40052;49.422;7.738;2022-10-16T03:27:53;1.77;;;0.60;;
54145;SDS011;40052;49.422;7.738;2022-10-16T03:30:18;0.57;;;0.50;;
54145;SDS011;40052;49.422;7.738;2022-10-16T03:32:46;0.55;;;0.50;;
54145;SDS011;40052;49.422;7.738;2022-10-16T03:35:12;4.43;;;0.90;;
54145;SDS011;40052;49.422;7.738;2022-10-16T03:37:37;1.25;;;0.63;;
54145;SDS011;40052;49.422;7.738;2022-10-16T03:40:05;3.70;;;1.25;;
54145;SDS011;40052;49.422;7.738;2022-10-16T03:42:31;1.73;;;0.70;;
54145;SDS011;40052;49.422;7.738;2022-10-16T03:44:57;1.40;;;0.82;;
54145;SDS011;40052;49.422;7.738;2022-10-16T03:47:22;1.23;;;0.80;;
54145;SDS011;40052;49.422;7.738;2022-10-16T03:49:48;0.70;;;0.50;;
54145;SDS011;40052;49.422;7.738;2022-10-16T03:52:17;5.50;;;0.80;;
54145;SDS011;40052;49.422;7.738;2022-10-16T03:54:42;0.50;;;0.50;;
54145;SDS011;40052;49.422;7.738;2022-10-16T03:57:08;1.02;;;0.55;;
54145;SDS011;40052;49.422;7.738;2022-10-16T03:59:33;0.40;;;0.40;;
54145;SDS011;40052;49.422;7.738;2022-10-16T04:02:04;1.25;;;0.50;;
54145;SDS011;40052;49.422;7.738;2022-10-16T04:04:29;0.60;;;0.50;;
54145;SDS011;40052;49.422;7.738;2022-10-16T04:06:57;2.15;;;0.55;;
54145;SDS011;40052;49.422;7.738;2022-10-16T04:09:22;3.47;;;0.70;;
54145;SDS011;40052;49.422;7.738;2022-10-16T04:11:48;0.57;;;0.57;;
54145;SDS011;40052;49.422;7.738;2022-10-16T04:14:15;2.13;;;0.63;;
54145;SDS011;40052;49.422;7.738;2022-10-16T04:16:43;2.13;;;0.63;;
54145;SDS011;40052;49.422;7.738;2022-10-16T04:19:11;0.98;;;0.70;;
54145;SDS011;40052;49.422;7.738;2022-10-16T04:21:39;0.85;;;0.82;;
54145;SDS011;40052;49.422;7.738;2022-10-16T04:24:04;1.45;;;0.52;;
54145;SDS011;40052;49.422;7.738;2022-10-16T04:26:29;0.88;;;0.50;;
54145;SDS011;40052;49.422;7.738;2022-10-16T04:28:55;2.05;;;0.73;;
54145;SDS011;40052;49.422;7.738;2022-10-16T04:31:20;2.25;;;0.70;;
54145;SDS011;40052;49.422;7.738;2022-10-16T04:33:50;1.40;;;0.55;;
54145;SDS011;40052;49.422;7.738;2022-10-16T04:36:16;0.50;;;0.50;;
54145;SDS011;40052;49.422;7.738;2022-10-16T04:38:41;2.95;;;0.65;;
54145;SDS011;40052;49.422;7.738;2022-10-16T04:41:07;0.77;;;0.77;;
54145;SDS011;40052;49.422;7.738;2022-10-16T04:43:33;0.80;;;0.70;;
54145;SDS011;40052;49.422;7.738;2022-10-16T04:45:59;1.60;;;1.00;;
54145;SDS011;40052;49.422;7.738;2022-10-16T04:48:24;3.38;;;0.90;;
54145;SDS011;40052;49.422;7.738;2022-10-16T04:50:50;1.00;;;0.90;;
54145;SDS011;40052;49.422;7.738;2022-10-16T04:53:18;2.70;;;1.20;;
54145;SDS011;40052;49.422;7.738;2022-10-16T04:55:45;2.83;;;1.10;;
54145;SDS011;40052;49.422;7.738;2022-10-16T04:58:11;3.03;;;1.05;;
54145;SDS011;40052;49.422;7.738;2022-10-16T05:00:36;1.90;;;1.27;;
54145;SDS011;40052;49.422;7.738;2022-10-16T05:03:05;1.65;;;1.15;;
54145;SDS011;40052;49.422;7.738;2022-10-16T05:05:33;2.03;;;1.13;;
54145;SDS011;40052;49.422;7.738;2022-10-16T05:07:59;3.72;;;1.20;;
54145;SDS011;40052;49.422;7.738;2022-10-16T05:10:27;1.88;;;1.08;;
54145;SDS011;40052;49.422;7.738;2022-10-16T05:12:57;2.40;;;1.40;;
54145;SDS011;40052;49.422;7.738;2022-10-16T05:15:25;3.85;;;1.00;;
54145;SDS011;40052;49.422;7.738;2022-10-16T05:17:53;1.38;;;1.08;;
54145;SDS011;40052;49.422;7.738;2022-10-16T05:20:19;2.88;;;1.00;;
54145;SDS011;40052;49.422;7.738;2022-10-16T05:22:44;0.70;;;0.70;;
54145;SDS011;40052;49.422;7.738;2022-10-16T05:25:12;3.75;;;1.00;;
54145;SDS011;40052;49.422;7.738;2022-10-16T05:27:40;4.55;;;1.08;;
54145;SDS011;40052;49.422;7.738;2022-10-16T05:30:05;2.83;;;1.10;;
54145;SDS011;40052;49.422;7.738;2022-10-16T05:32:31;2.45;;;1.00;;
54145;SDS011;40052;49.422;7.738;2022-10-16T05:34:57;2.67;;;1.33;;
54145;SDS011;40052;49.422;7.738;2022-10-16T05:37:27;2.65;;;1.13;;
54145;SDS011;40052;49.422;7.738;2022-10-16T05:39:52;1.48;;;1.00;;
54145;SDS011;40052;49.422;7.738;2022-10-16T05:42:17;3.70;;;1.25;;
54145;SDS011;40052;49.422;7.738;2022-10-16T05:44:43;2.90;;;1.30;;
54145;SDS011;40052;49.422;7.738;2022-10-16T05:47:09;2.25;;;1.00;;
54145;SDS011;40052;49.422;7.738;2022-10-16T05:49:35;1.30;;;1.20;;
54145;SDS011;40052;49.422;7.738;2022-10-16T05:52:01;1.10;;;1.00;;
54145;SDS011;40052;49.422;7.738;2022-10-16T05:54:26;2.35;;;1.27;;
54145;SDS011;40052;49.422;7.738;2022-10-16T05:56:52;2.00;;;1.10;;
54145;SDS011;40052;49.422;7.738;2022-10-16T05:59:17;1.25;;;1.15;;
54145;SDS011;40052;49.422;7.738;2022-10-16T06:01:42;2.42;;;1.23;;
54145;SDS011;40052;49.422;7.738;2022-10-16T06:04:10;3.58;;;1.38;;
54145;SDS011;40052;49.422;7.738;2022-10-16T06:06:36;2.35;;;1.58;;
54145;SDS011;40052;49.422;7.738;2022-10-16T06:09:03;3.05;;;1.83;;
54145;SDS011;40052;49.422;7.738;2022-10-16T06:11:32;1.90;;;1.30;;
54145;SDS011;40052;49.422;7.738;2022-10-16T06:13:59;2.22;;;1.30;;
54145;SDS011;40052;49.422;7.738;2022-10-16T06:16:32;2.70;;;1.50;;
54145;SDS011;40052;49.422;7.738;2022-10-16T06:18:58;2.70;;;1.42;;
54145;SDS011;40052;49.422;7.738;2022-10-16T06:21:25;5.55;;;1.70;;
54145;SDS011;40052;49.422;7.738;2022-10-16T06:23:55;1.83;;;1.50;;
54145;SDS011;40052;49.422;7.738;2022-10-16T06:26:24;8.32;;;3.33;;
54145;SDS011;40052;49.422;7.738;2022-10-16T06:28:51;1.92;;;1.30;;
54145;SDS011;40052;49.422;7.738;2022-10-16T06:31:18;2.45;;;1.48;;
54145;SDS011;40052;49.422;7.738;2022-10-16T06:33:43;3.83;;;1.85;;
54145;SDS011;40052;49.422;7.738;2022-10-16T06:36:11;4.47;;;3.53;;
54145;SDS011;40052;49.422;7.738;2022-10-16T06:38:41;7.82;;;2.40;;
54145;SDS011;40052;49.422;7.738;2022-10-16T06:41:09;3.63;;;2.50;;
54145;SDS011;40052;49.422;7.738;2022-10-16T06:43:36;3.42;;;2.03;;
54145;SDS011;40052;49.422;7.738;2022-10-16T06:46:02;4.97;;;1.80;;
54145;SDS011;40052;49.422;7.738;2022-10-16T06:48:29;5.70;;;2.03;;
54145;SDS011;40052;49.422;7.738;2022-10-16T06:50:59;3.17;;;1.95;;
54145;SDS011;40052;49.422;7.738;2022-10-16T06:53:31;5.07;;;2.00;;
54145;SDS011;40052;49.422;7.738;2022-10-16T06:56:05;4.28;;;2.20;;
54145;SDS011;40052;49.422;7.738;2022-10-16T06:58:41;4.13;;;2.00;;
54145;SDS011;40052;49.422;7.738;2022-10-16T07:01:10;4.40;;;2.20;;
54145;SDS011;40052;49.422;7.738;2022-10-16T07:03:39;5.03;;;2.17;;
54145;SDS011;40052;49.422;7.738;2022-10-16T07:06:07;3.17;;;2.00;;
54145;SDS011;40052;49.422;7.738;2022-10-16T07:08:35;3.05;;;1.88;;
54145;SDS011;40052;49.422;7.738;2022-10-16T07:11:02;3.03;;;1.67;;
54145;SDS011;40052;49.422;7.738;2022-10-16T07:13:33;2.38;;;1.45;;
54145;SDS011;40052;49.422;7.738;2022-10-16T07:16:03;1.83;;;1.45;;
54145;SDS011;40052;49.422;7.738;2022-10-16T07:18:29;1.60;;;1.30;;
54145;SDS011;40052;49.422;7.738;2022-10-16T07:21:08;2.78;;;1.63;;
54145;SDS011;40052;49.422;7.738;2022-10-16T07:23:44;2.10;;;1.60;;
54145;SDS011;40052;49.422;7.738;2022-10-16T07:26:12;3.25;;;1.60;;
54145;SDS011;40052;49.422;7.738;2022-10-16T07:28:39;2.65;;;1.60;;
54145;SDS011;40052;49.422;7.738;2022-10-16T07:31:09;7.03;;;1.67;;
54145;SDS011;40052;49.422;7.738;2022-10-16T07:33:36;5.50;;;2.65;;
54145;SDS011;40052;49.422;7.738;2022-10-16T07:36:03;4.03;;;2.03;;
54145;SDS011;40052;49.422;7.738;2022-10-16T07:38:29;3.53;;;1.98;;
54145;SDS011;40052;49.422;7.738;2022-10-16T07:41:03;2.90;;;2.17;;
54145;SDS011;40052;49.422;7.738;2022-10-16T07:43:30;2.63;;;1.70;;
54145;SDS011;40052;49.422;7.738;2022-10-16T07:45:57;4.15;;;1.70;;
54145;SDS011;40052;49.422;7.738;2022-10-16T07:48:26;3.88;;;1.88;;
54145;SDS011;40052;49.422;7.738;2022-10-16T07:50:56;4.43;;;3.85;;
54145;SDS011;40052;49.422;7.738;2022-10-16T07:53:23;6.93;;;3.83;;
54145;SDS011;40052;49.422;7.738;2022-10-16T07:55:48;7.35;;;2.92;;
54145;SDS011;40052;49.422;7.738;2022-10-16T07:58:16;6.03;;;3.03;;
54145;SDS011;40052;49.422;7.738;2022-10-16T08:00:41;4.13;;;2.22;;
54145;SDS011;40052;49.422;7.738;2022-10-16T08:03:07;4.43;;;2.30;;
54145;SDS011;40052;49.422;7.738;2022-10-16T08:05:37;5.07;;;2.33;;
54145;SDS011;40052;49.422;7.738;2022-10-16T08:08:03;3.95;;;2.10;;
54145;SDS011;40052;49.422;7.738;2022-10-16T08:10:31;6.80;;;2.65;;
54145;SDS011;40052;49.422;7.738;2022-10-16T08:12:56;3.50;;;2.25;;
54145;SDS011;40052;49.422;7.738;2022-10-16T08:15:22;3.25;;;2.15;;
54145;SDS011;40052;49.422;7.738;2022-10-16T08:18:01;5.85;;;3.80;;
54145;SDS011;40052;49.422;7.738;2022-10-16T08:20:29;4.82;;;2.70;;
54145;SDS011;40052;49.422;7.738;2022-10-16T08:22:55;5.57;;;2.78;;
54145;SDS011;40052;49.422;7.738;2022-10-16T08:25:23;2.60;;;2.10;;
54145;SDS011;40052;49.422;7.738;2022-10-16T08:27:49;3.95;;;2.50;;
54145;SDS011;40052;49.422;7.738;2022-10-16T08:30:17;5.30;;;2.45;;
54145;SDS011;40052;49.422;7.738;2022-10-16T08:32:44;4.18;;;2.40;;
54145;SDS011;40052;49.422;7.738;2022-10-16T08:35:15;4.55;;;2.30;;
54145;SDS011;40052;49.422;7.738;2022-10-16T08:37:41;4.32;;;2.30;;
54145;SDS011;40052;49.422;7.738;2022-10-16T08:40:12;4.70;;;2.40;;
54145;SDS011;40052;49.422;7.738;2022-10-16T08:48:50;4.60;;;2.30;;
54145;SDS011;40052;49.422;7.738;2022-10-16T08:51:23;3.35;;;2.13;;
54145;SDS011;40052;49.422;7.738;2022-10-16T08:53:55;2.90;;;2.40;;
54145;SDS011;40052;49.422;7.738;2022-10-16T08:56:25;7.80;;;2.67;;
54145;SDS011;40052;49.422;7.738;2022-10-16T08:58:51;8.98;;;2.28;;
54145;SDS011;40052;49.422;7.738;2022-10-16T09:01:17;4.00;;;2.10;;
54145;SDS011;40052;49.422;7.738;2022-10-16T09:03:54;4.32;;;2.40;;
54145;SDS011;40052;49.422;7.738;2022-10-16T09:12:04;3.05;;;2.17;;
54145;SDS011;40052;49.422;7.738;2022-10-16T09:20:03;7.00;;;2.47;;
54145;SDS011;40052;49.422;7.738;2022-10-16T09:22:38;7.65;;;2.58;;
54145;SDS011;40052;49.422;7.738;2022-10-16T09:25:14;3.05;;;2.05;;
54145;SDS011;40052;49.422;7.738;2022-10-16T09:27:40;2.72;;;2.08;;
54145;SDS011;40052;49.422;7.738;2022-10-16T09:30:16;2.88;;;2.42;;
54145;SDS011;40052;49.422;7.738;2022-10-16T09:32:44;4.72;;;2.38;;
54145;SDS011;40052;49.422;7.738;2022-10-16T09:35:15;4.07;;;2.40;;
54145;SDS011;40052;49.422;7.738;2022-10-16T09:37:49;4.18;;;1.90;;
54145;SDS011;40052;49.422;7.738;2022-10-16T09:40:51;3.05;;;1.98;;
54145;SDS011;40052;49.422;7.738;2022-10-16T09:45:52;5.53;;;2.00;;
54145;SDS011;40052;49.422;7.738;2022-10-16T09:48:23;3.08;;;2.10;;
54145;SDS011;40052;49.422;7.738;2022-10-16T09:50:56;2.70;;;2.05;;
54145;SDS011;40052;49.422;7.738;2022-10-16T09:53:26;4.38;;;2.33;;
54145;SDS011;40052;49.422;7.738;2022-10-16T09:56:09;3.70;;;2.20;;
54145;SDS011;40052;49.422;7.738;2022-10-16T09:58:35;4.43;;;2.35;;
54145;SDS011;40052;49.422;7.738;2022-10-16T10:01:02;3.83;;;2.35;;
54145;SDS011;40052;49.422;7.738;2022-10-16T10:16:47;5.25;;;2.47;;
54145;SDS011;40052;49.422;7.738;2022-10-16T10:19:14;5.80;;;2.30;;
54145;SDS011;40052;49.422;7.738;2022-10-16T10:21:51;3.58;;;2.30;;
54145;SDS011;40052;49.422;7.738;2022-10-16T10:24:19;4.30;;;2.60;;
54145;SDS011;40052;49.422;7.738;2022-10-16T10:27:07;5.30;;;2.40;;
54145;SDS011;40052;49.422;7.738;2022-10-16T10:29:59;4.95;;;2.25;;
54145;SDS011;40052;49.422;7.738;2022-10-16T10:35:11;4.65;;;2.10;;
54145;SDS011;40052;49.422;7.738;2022-10-16T10:38:27;4.70;;;2.00;;
54145;SDS011;40052;49.422;7.738;2022-10-16T10:45:54;5.65;;;2.30;;
54145;SDS011;40052;49.422;7.738;2022-10-16T10:51:00;3.88;;;2.40;;
54145;SDS011;40052;49.422;7.738;2022-10-16T11:02:52;2.75;;;2.10;;
54145;SDS011;40052;49.422;7.738;2022-10-16T11:07:58;3.60;;;2.15;;
54145;SDS011;40052;49.422;7.738;2022-10-16T11:10:28;5.72;;;1.90;;
54145;SDS011;40052;49.422;7.738;2022-10-16T11:15:55;3.95;;;2.83;;
54145;SDS011;40052;49.422;7.738;2022-10-16T11:21:22;2.35;;;1.90;;
54145;SDS011;40052;49.422;7.738;2022-10-16T11:26:29;5.35;;;2.40;;
54145;SDS011;40052;49.422;7.738;2022-10-16T11:28:59;3.60;;;2.03;;
54145;SDS011;40052;49.422;7.738;2022-10-16T11:31:40;2.30;;;2.00;;
54145;SDS011;40052;49.422;7.738;2022-10-16T11:34:20;2.88;;;2.08;;
54145;SDS011;40052;49.422;7.738;2022-10-16T11:37:11;3.28;;;1.80;;
54145;SDS011;40052;49.422;7.738;2022-10-16T11:39:39;3.88;;;2.45;;
54145;SDS011;40052;49.422;7.738;2022-10-16T11:42:10;5.05;;;1.73;;
54145;SDS011;40052;49.422;7.738;2022-10-16T11:47:26;4.53;;;1.90;;
54145;SDS011;40052;49.422;7.738;2022-10-16T11:49:53;4.22;;;1.90;;
54145;SDS011;40052;49.422;7.738;2022-10-16T11:52:25;3.67;;;1.75;;
54145;SDS011;40052;49.422;7.738;2022-10-16T11:55:14;3.67;;;2.00;;
54145;SDS011;40052;49.422;7.738;2022-10-16T11:57:44;2.30;;;2.00;;
54145;SDS011;40052;49.422;7.738;2022-10-16T12:05:24;5.00;;;2.13;;
54145;SDS011;40052;49.422;7.738;2022-10-16T12:10:30;4.22;;;1.92;;
54145;SDS011;40052;49.422;7.738;2022-10-16T12:13:02;4.22;;;2.42;;
54145;SDS011;40052;49.422;7.738;2022-10-16T12:15:30;3.22;;;2.40;;
54145;SDS011;40052;49.422;7.738;2022-10-16T12:18:00;4.00;;;1.60;;
54145;SDS011;40052;49.422;7.738;2022-10-16T12:20:27;4.20;;;2.03;;
54145;SDS011;40052;49.422;7.738;2022-10-16T12:25:31;4.30;;;1.60;;
54145;SDS011;40052;49.422;7.738;2022-10-16T12:27:59;2.50;;;1.80;;
54145;SDS011;40052;49.422;7.738;2022-10-16T12:30:29;3.95;;;1.60;;
54145;SDS011;40052;49.422;7.738;2022-10-16T12:32:57;3.65;;;1.67;;
54145;SDS011;40052;49.422;7.738;2022-10-16T12:35:30;5.60;;;1.92;;
54145;SDS011;40052;49.422;7.738;2022-10-16T12:38:07;4.18;;;1.83;;
54145;SDS011;40052;49.422;7.738;2022-10-16T12:40:42;2.35;;;1.52;;
54145;SDS011;40052;49.422;7.738;2022-10-16T12:43:51;3.83;;;1.77;;
54145;SDS011;40052;49.422;7.738;2022-10-16T12:48:39;2.50;;;1.60;;
54145;SDS011;40052;49.422;7.738;2022-10-16T12:53:57;3.47;;;1.88;;
54145;SDS011;40052;49.422;7.738;2022-10-16T13:10:23;3.08;;;1.77;;
54145;SDS011;40052;49.422;7.738;2022-10-16T13:28:58;4.60;;;2.05;;
54145;SDS011;40052;49.422;7.738;2022-10-16T13:31:29;5.13;;;1.90;;
54145;SDS011;40052;49.422;7.738;2022-10-16T13:33:56;3.55;;;2.05;;
54145;SDS011;40052;49.422;7.738;2022-10-16T13:41:41;3.15;;;1.90;;
54145;SDS011;40052;49.422;7.738;2022-10-16T13:44:28;4.30;;;2.20;;
54145;SDS011;40052;49.422;7.738;2022-10-16T13:47:01;5.40;;;1.98;;
54145;SDS011;40052;49.422;7.738;2022-10-16T13:49:27;3.85;;;2.00;;
54145;SDS011;40052;49.422;7.738;2022-10-16T13:51:56;4.35;;;2.08;;
54145;SDS011;40052;49.422;7.738;2022-10-16T13:54:25;2.40;;;2.10;;
54145;SDS011;40052;49.422;7.738;2022-10-16T13:56:53;3.30;;;1.98;;
54145;SDS011;40052;49.422;7.738;2022-10-16T13:59:36;5.63;;;2.08;;
54145;SDS011;40052;49.422;7.738;2022-10-16T14:04:41;2.45;;;2.03;;
54145;SDS011;40052;49.422;7.738;2022-10-16T14:07:18;5.75;;;2.28;;
54145;SDS011;40052;49.422;7.738;2022-10-16T14:09:48;3.33;;;2.10;;
54145;SDS011;40052;49.422;7.738;2022-10-16T14:12:15;5.07;;;2.20;;
54145;SDS011;40052;49.422;7.738;2022-10-16T14:14:46;3.05;;;2.28;;
54145;SDS011;40052;49.422;7.738;2022-10-16T14:17:15;2.47;;;2.10;;
54145;SDS011;40052;49.422;7.738;2022-10-16T14:19:46;3.83;;;1.95;;
54145;SDS011;40052;49.422;7.738;2022-10-16T14:22:22;6.00;;;2.97;;
54145;SDS011;40052;49.422;7.738;2022-10-16T14:24:49;4.10;;;2.35;;
54145;SDS011;40052;49.422;7.738;2022-10-16T14:27:34;4.95;;;1.95;;
54145;SDS011;40052;49.422;7.738;2022-10-16T14:30:14;4.10;;;2.05;;
54145;SDS011;40052;49.422;7.738;2022-10-16T14:33:04;2.70;;;2.17;;
54145;SDS011;40052;49.422;7.738;2022-10-16T14:35:32;4.10;;;2.28;;
54145;SDS011;40052;49.422;7.738;2022-10-16T14:38:00;3.10;;;2.00;;
54145;SDS011;40052;49.422;7.738;2022-10-16T14:40:31;2.85;;;2.00;;
54145;SDS011;40052;49.422;7.738;2022-10-16T14:43:04;9.23;;;2.90;;
54145;SDS011;40052;49.422;7.738;2022-10-16T14:45:31;3.50;;;1.98;;
54145;SDS011;40052;49.422;7.738;2022-10-16T14:48:01;5.60;;;2.50;;
54145;SDS011;40052;49.422;7.738;2022-10-16T14:50:33;3.38;;;1.90;;
54145;SDS011;40052;49.422;7.738;2022-10-16T14:52:58;3.72;;;2.35;;
54145;SDS011;40052;49.422;7.738;2022-10-16T14:55:26;4.47;;;2.47;;
54145;SDS011;40052;49.422;7.738;2022-10-16T14:57:51;4.00;;;2.05;;
54145;SDS011;40052;49.422;7.738;2022-10-16T15:00:21;8.80;;;2.80;;
54145;SDS011;40052;49.422;7.738;2022-10-16T15:02:50;6.55;;;3.45;;
54145;SDS011;40052;49.422;7.738;2022-10-16T15:05:20;7.80;;;3.25;;
54145;SDS011;40052;49.422;7.738;2022-10-16T15:07:53;8.02;;;3.30;;
54145;SDS011;40052;49.422;7.738;2022-10-16T15:10:20;5.88;;;2.75;;
54145;SDS011;40052;49.422;7.738;2022-10-16T15:12:49;6.45;;;2.80;;
54145;SDS011;40052;49.422;7.738;2022-10-16T15:17:54;3.25;;;2.38;;
54145;SDS011;40052;49.422;7.738;2022-10-16T15:20:26;3.88;;;3.05;;
54145;SDS011;40052;49.422;7.738;2022-10-16T15:22:55;3.38;;;2.58;;
54145;SDS011;40052;49.422;7.738;2022-10-16T15:28:17;4.38;;;2.60;;
54145;SDS011;40052;49.422;7.738;2022-10-16T15:30:44;8.57;;;3.90;;
54145;SDS011;40052;49.422;7.738;2022-10-16T15:33:16;3.40;;;2.42;;
54145;SDS011;40052;49.422;7.738;2022-10-16T15:35:47;11.30;;;3.03;;
54145;SDS011;40052;49.422;7.738;2022-10-16T15:38:17;3.85;;;3.05;;
54145;SDS011;40052;49.422;7.738;2022-10-16T15:40:46;3.42;;;2.80;;
54145;SDS011;40052;49.422;7.738;2022-10-16T15:43:12;9.75;;;3.20;;
54145;SDS011;40052;49.422;7.738;2022-10-16T15:45:40;7.05;;;3.13;;
54145;SDS011;40052;49.422;7.738;2022-10-16T15:48:07;6.00;;;3.20;;
54145;SDS011;40052;49.422;7.738;2022-10-16T15:50:39;3.55;;;2.78;;
54145;SDS011;40052;49.422;7.738;2022-10-16T15:53:07;6.43;;;2.80;;
54145;SDS011;40052;49.422;7.738;2022-10-16T15:55:33;4.10;;;2.67;;
54145;SDS011;40052;49.422;7.738;2022-10-16T15:58:02;5.65;;;2.90;;
54145;SDS011;40052;49.422;7.738;2022-10-16T16:00:28;9.02;;;2.88;;
54145;SDS011;40052;49.422;7.738;2022-10-16T16:02:54;4.80;;;3.05;;
54145;SDS011;40052;49.422;7.738;2022-10-16T16:05:22;4.13;;;3.05;;
54145;SDS011;40052;49.422;7.738;2022-10-16T16:07:48;5.80;;;2.88;;
54145;SDS011;40052;49.422;7.738;2022-10-16T16:10:16;8.63;;;3.30;;
54145;SDS011;40052;49.422;7.738;2022-10-16T16:12:41;6.32;;;3.50;;
54145;SDS011;40052;49.422;7.738;2022-10-16T16:15:08;4.97;;;2.67;;
54145;SDS011;40052;49.422;7.738;2022-10-16T16:17:37;6.90;;;3.25;;
54145;SDS011;40052;49.422;7.738;2022-10-16T16:20:05;5.85;;;3.28;;
54145;SDS011;40052;49.422;7.738;2022-10-16T16:22:31;3.63;;;2.85;;
54145;SDS011;40052;49.422;7.738;2022-10-16T16:24:56;6.88;;;3.20;;
54145;SDS011;40052;49.422;7.738;2022-10-16T16:27:21;6.85;;;3.58;;
54145;SDS011;40052;49.422;7.738;2022-10-16T16:29:54;4.63;;;3.28;;
54145;SDS011;40052;49.422;7.738;2022-10-16T16:32:22;7.05;;;3.45;;
54145;SDS011;40052;49.422;7.738;2022-10-16T16:34:48;4.88;;;3.50;;
54145;SDS011;40052;49.422;7.738;2022-10-16T16:37:13;10.73;;;5.88;;
54145;SDS011;40052;49.422;7.738;2022-10-16T16:39:42;7.90;;;6.07;;
54145;SDS011;40052;49.422;7.738;2022-10-16T16:42:07;9.27;;;5.90;;
54145;SDS011;40052;49.422;7.738;2022-10-16T16:44:33;10.30;;;5.72;;
54145;SDS011;40052;49.422;7.738;2022-10-16T16:47:01;7.72;;;4.50;;
54145;SDS011;40052;49.422;7.738;2022-10-16T16:49:27;7.00;;;4.47;;
54145;SDS011;40052;49.422;7.738;2022-10-16T16:51:52;6.68;;;4.63;;
54145;SDS011;40052;49.422;7.738;2022-10-16T16:54:18;10.23;;;5.03;;
54145;SDS011;40052;49.422;7.738;2022-10-16T16:56:44;9.20;;;4.60;;
54145;SDS011;40052;49.422;7.738;2022-10-16T16:59:12;10.05;;;5.03;;
54145;SDS011;40052;49.422;7.738;2022-10-16T17:01:39;6.85;;;5.40;;
54145;SDS011;40052;49.422;7.738;2022-10-16T17:04:05;8.95;;;5.60;;
54145;SDS011;40052;49.422;7.738;2022-10-16T17:06:31;6.68;;;4.88;;
54145;SDS011;40052;49.422;7.738;2022-10-16T17:08:56;8.15;;;5.05;;
54145;SDS011;40052;49.422;7.738;2022-10-16T17:11:23;6.63;;;4.68;;
54145;SDS011;40052;49.422;7.738;2022-10-16T17:13:50;7.47;;;5.15;;
54145;SDS011;40052;49.422;7.738;2022-10-16T17:16:18;8.38;;;4.75;;
54145;SDS011;40052;49.422;7.738;2022-10-16T17:18:45;9.32;;;4.63;;
54145;SDS011;40052;49.422;7.738;2022-10-16T17:21:11;8.85;;;4.13;;